Time;durP1;ratioP1;P1;durP2;ratioP2;P2;SDS_P1;SDS_P2;PMS_P1;PMS_P2;Temp;Humidity;BMP_temperature;BMP_pressure;BME280_temperature;BME280_humidity;BME280_pressure;Samples;Min_cycle;Max_cycle;Signal;HPM_P1;HPM_P2
2022/11/06 00:01:22;;;;;;;10.73;5.22;;;8.60;99.90;;;;;;6212923;23;20024;-86
2022/11/06 00:03:51;;;;;;;11.30;5.40;;;8.50;99.90;;;;;;6180321;23;20001;-88
2022/11/06 00:09:09;;;;;;;14.15;5.50;;;8.50;99.90;;;;;;6206191;23;20005;-88
2022/11/06 00:11:35;;;;;;;12.00;5.80;;;8.50;99.90;;;;;;6182433;23;20012;-86
2022/11/06 00:14:02;;;;;;;17.95;6.13;;;8.50;99.90;;;;;;6183002;23;20060;-87
2022/11/06 00:16:28;;;;;;;16.85;5.72;;;8.40;99.90;;;;;;6210607;23;20048;-88
2022/11/06 00:18:54;;;;;;;15.10;4.95;;;8.40;99.90;;;;;;6207085;23;20008;-88
2022/11/06 00:21:25;;;;;;;8.50;5.18;;;8.40;99.90;;;;;;6201714;23;20007;-89
2022/11/06 00:23:52;;;;;;;14.18;5.43;;;8.40;99.90;;;;;;6205304;23;19993;-87
2022/11/06 00:26:23;;;;;;;13.73;4.93;;;8.40;99.90;;;;;;6204761;23;20001;-88
2022/11/06 00:28:50;;;;;;;11.63;5.40;;;8.40;99.90;;;;;;6207977;23;20066;-87
2022/11/06 00:31:19;;;;;;;16.55;4.82;;;8.40;99.90;;;;;;6185896;23;20004;-87
2022/11/06 00:33:46;;;;;;;13.07;5.10;;;8.40;99.90;;;;;;6177997;23;20012;-87
2022/11/06 00:36:18;;;;;;;14.43;5.68;;;8.40;99.90;;;;;;6180836;23;20070;-88
2022/11/06 00:38:44;;;;;;;12.80;5.57;;;8.40;99.90;;;;;;6201330;23;20005;-86
2022/11/06 00:41:12;;;;;;;16.52;5.63;;;8.40;99.90;;;;;;6202920;23;20089;-88
2022/11/06 00:43:38;;;;;;;18.42;5.88;;;8.30;99.90;;;;;;6201325;23;20039;-87
2022/11/06 00:46:05;;;;;;;12.75;5.40;;;8.30;99.90;;;;;;6185945;23;20016;-80
2022/11/06 00:48:32;;;;;;;11.43;4.57;;;8.30;99.90;;;;;;6219319;23;20500;-81
2022/11/06 00:51:02;;;;;;;15.10;5.63;;;8.30;99.90;;;;;;6220102;23;20009;-81
2022/11/06 00:53:28;;;;;;;11.13;5.15;;;8.30;99.90;;;;;;6227810;23;20008;-80
2022/11/06 00:55:54;;;;;;;12.63;6.15;;;8.20;99.90;;;;;;6219782;23;20107;-80
2022/11/06 00:58:19;;;;;;;15.55;5.47;;;8.20;99.90;;;;;;6225315;23;20009;-79
2022/11/06 01:00:45;;;;;;;14.95;5.65;;;8.20;99.90;;;;;;6222600;23;20008;-79
2022/11/06 01:03:12;;;;;;;10.88;5.25;;;8.20;99.90;;;;;;6219330;23;20022;-80
2022/11/06 01:05:38;;;;;;;17.75;5.13;;;8.20;99.90;;;;;;6218994;23;20005;-80
2022/11/06 01:08:04;;;;;;;12.57;4.72;;;8.20;99.90;;;;;;6230536;23;20083;-80
2022/11/06 01:10:29;;;;;;;21.67;5.78;;;8.20;99.90;;;;;;6234110;23;20047;-80
2022/11/06 01:12:56;;;;;;;18.10;5.47;;;8.10;99.90;;;;;;6237574;23;20051;-78
2022/11/06 01:15:22;;;;;;;16.20;5.70;;;8.20;99.90;;;;;;6239119;23;20004;-79
2022/11/06 01:17:47;;;;;;;9.18;4.90;;;8.20;99.90;;;;;;6233416;23;20008;-79
2022/11/06 01:20:13;;;;;;;16.42;5.90;;;8.20;99.90;;;;;;6226839;23;20052;-79
2022/11/06 01:22:39;;;;;;;16.88;6.18;;;8.20;99.90;;;;;;6231537;23;20000;-80
2022/11/06 01:25:05;;;;;;;12.45;5.38;;;8.20;99.90;;;;;;6224923;23;20009;-78
2022/11/06 01:27:31;;;;;;;14.13;5.75;;;8.10;99.90;;;;;;6222445;23;20004;-80
2022/11/06 01:29:57;;;;;;;11.27;5.30;;;8.10;99.90;;;;;;6222068;23;20047;-79
2022/11/06 01:32:23;;;;;;;16.55;5.72;;;8.10;99.90;;;;;;6220839;23;20005;-79
2022/11/06 01:34:50;;;;;;;17.27;5.05;;;8.10;99.90;;;;;;6219859;23;20003;-80
2022/11/06 01:37:16;;;;;;;12.98;6.07;;;8.10;99.90;;;;;;6220561;23;20031;-80
2022/11/06 01:39:41;;;;;;;10.45;4.90;;;8.10;99.90;;;;;;6219070;23;20000;-81
2022/11/06 01:42:10;;;;;;;9.10;5.30;;;8.00;99.90;;;;;;6219452;23;20005;-81
2022/11/06 01:44:42;;;;;;;16.05;5.72;;;8.00;99.90;;;;;;6218436;23;20007;-81
2022/11/06 01:47:22;;;;;;;12.73;5.72;;;8.00;99.90;;;;;;6189302;23;20005;-79
2022/11/06 01:49:51;;;;;;;15.20;5.85;;;8.00;99.90;;;;;;6188867;23;20059;-79
2022/11/06 01:52:19;;;;;;;16.95;5.53;;;8.00;99.90;;;;;;6188605;23;20002;-78
2022/11/06 01:54:49;;;;;;;13.32;5.47;;;8.00;99.90;;;;;;6188811;23;20316;-80
2022/11/06 01:57:15;;;;;;;14.32;5.43;;;7.90;99.90;;;;;;6188219;23;20016;-80
2022/11/06 01:59:43;;;;;;;13.38;5.93;;;8.00;99.90;;;;;;6188211;23;20344;-80
2022/11/06 02:02:10;;;;;;;10.07;5.43;;;8.00;99.90;;;;;;6160818;23;20005;-79
2022/11/06 02:04:47;;;;;;;14.82;5.32;;;8.00;99.90;;;;;;6186743;23;20005;-80
2022/11/06 02:07:13;;;;;;;13.40;5.65;;;7.90;99.90;;;;;;6160804;23;20016;-81
2022/11/06 02:09:39;;;;;;;10.93;5.97;;;7.90;99.90;;;;;;6187108;23;20008;-79
2022/11/06 02:12:16;;;;;;;11.73;5.63;;;7.90;99.90;;;;;;6160265;23;20024;-79
2022/11/06 02:14:47;;;;;;;20.60;6.15;;;7.90;99.90;;;;;;6188046;23;20009;-79
2022/11/06 02:17:22;;;;;;;13.27;5.40;;;7.90;99.90;;;;;;6197381;23;20036;-78
2022/11/06 02:20:02;;;;;;;14.95;6.80;;;7.90;99.90;;;;;;6187479;23;20005;-79
2022/11/06 02:23:00;;;;;;;17.73;6.00;;;7.90;99.90;;;;;;6186356;23;20028;-79
2022/11/06 02:26:10;;;;;;;16.02;5.90;;;7.90;99.90;;;;;;6126831;23;20043;-78
2022/11/06 02:28:41;;;;;;;11.85;5.72;;;7.80;99.90;;;;;;6037503;23;20046;-80
2022/11/06 02:31:14;;;;;;;16.25;7.25;;;7.80;99.90;;;;;;6149888;23;20013;-78
2022/11/06 02:33:50;;;;;;;19.30;6.90;;;7.80;99.90;;;;;;6199878;23;20005;-80
2022/11/06 02:36:20;;;;;;;13.95;6.40;;;7.80;99.90;;;;;;6168214;23;20104;-78
2022/11/06 02:38:52;;;;;;;15.48;5.72;;;7.80;99.90;;;;;;6193892;23;20005;-79
2022/11/06 02:41:39;;;;;;;14.40;7.00;;;7.80;99.90;;;;;;6170576;23;20025;-79
2022/11/06 02:44:09;;;;;;;15.35;6.72;;;7.70;99.90;;;;;;6170955;23;20002;-79
2022/11/06 02:46:47;;;;;;;13.45;5.40;;;7.70;99.90;;;;;;6189014;23;20009;-78
2022/11/06 02:49:34;;;;;;;14.52;6.70;;;7.70;99.90;;;;;;6186244;23;20060;-78
2022/11/06 02:52:08;;;;;;;15.30;6.50;;;7.70;99.90;;;;;;6192383;23;20013;-79
2022/11/06 02:54:39;;;;;;;16.65;6.70;;;7.70;99.90;;;;;;6197313;23;20017;-78
2022/11/06 02:57:09;;;;;;;14.63;6.57;;;7.70;99.90;;;;;;6197850;23;20035;-77
2022/11/06 02:59:58;;;;;;;15.07;6.95;;;7.70;99.90;;;;;;6196966;23;20005;-77
2022/11/06 03:02:34;;;;;;;15.98;6.28;;;7.70;99.90;;;;;;6173087;23;20012;-78
2022/11/06 03:05:14;;;;;;;17.98;6.68;;;7.70;99.90;;;;;;6190157;23;20342;-79
2022/11/06 03:07:52;;;;;;;20.48;6.63;;;7.70;99.90;;;;;;6171132;23;20014;-78
2022/11/06 03:10:18;;;;;;;12.80;6.50;;;7.70;99.90;;;;;;6190979;23;20531;-79
2022/11/06 03:12:57;;;;;;;15.68;6.00;;;7.70;99.90;;;;;;6190951;23;20068;-79
2022/11/06 03:15:55;;;;;;;13.20;6.57;;;7.70;99.90;;;;;;6190146;23;20398;-79
2022/11/06 03:18:38;;;;;;;21.20;7.35;;;7.70;99.90;;;;;;6163192;23;20009;-79
2022/11/06 03:21:17;;;;;;;16.52;7.72;;;7.70;99.90;;;;;;6190567;23;20055;-78
2022/11/06 03:24:07;;;;;;;12.95;6.80;;;7.70;99.90;;;;;;6191608;23;20005;-80
2022/11/06 03:26:37;;;;;;;14.43;6.68;;;7.70;99.90;;;;;;6163531;23;20009;-79
2022/11/06 03:29:16;;;;;;;14.38;7.55;;;7.70;99.90;;;;;;6198435;23;20094;-79
2022/11/06 03:31:54;;;;;;;24.30;8.30;;;7.70;99.90;;;;;;6173604;23;20005;-77
2022/11/06 03:34:53;;;;;;;22.42;7.80;;;7.70;99.90;;;;;;6198431;23;20005;-78
2022/11/06 03:37:27;;;;;;;16.90;7.38;;;7.70;99.90;;;;;;6192383;23;20009;-79
2022/11/06 03:39:56;;;;;;;17.35;7.85;;;7.70;99.90;;;;;;6187967;23;20521;-79
2022/11/06 03:42:27;;;;;;;18.90;7.05;;;7.70;99.90;;;;;;6188575;23;20051;-79
2022/11/06 03:45:01;;;;;;;17.45;7.20;;;7.70;99.90;;;;;;6177497;23;20012;-79
2022/11/06 03:47:36;;;;;;;19.35;7.40;;;7.70;99.90;;;;;;6167105;23;20005;-78
2022/11/06 03:50:08;;;;;;;21.02;7.85;;;7.70;99.90;;;;;;6169153;23;20055;-78
2022/11/06 03:52:38;;;;;;;19.63;7.82;;;7.70;99.90;;;;;;6193695;23;20015;-78
2022/11/06 03:55:09;;;;;;;22.25;8.18;;;7.70;99.90;;;;;;6191356;23;20009;-78
2022/11/06 03:58:00;;;;;;;21.42;8.10;;;7.70;99.90;;;;;;6191361;23;20013;-79
2022/11/06 04:00:26;;;;;;;21.48;7.57;;;7.70;99.90;;;;;;6161670;23;20016;-79
2022/11/06 04:03:06;;;;;;;26.98;8.05;;;7.70;99.90;;;;;;6187732;23;20001;-78
2022/11/06 04:05:36;;;;;;;17.60;8.20;;;7.60;99.90;;;;;;6162916;23;20060;-78
2022/11/06 04:14:00;;;;;;;18.27;7.60;;;7.60;99.90;;;;;;6070963;23;20536;-79
2022/11/06 04:16:40;;;;;;;15.40;8.23;;;7.60;99.90;;;;;;6154956;23;20436;-78
2022/11/06 04:19:21;;;;;;;14.75;7.10;;;7.60;99.90;;;;;;6196387;23;20132;-79
2022/11/06 04:22:21;;;;;;;21.98;8.55;;;7.60;99.90;;;;;;6174530;23;20001;-78
2022/11/06 04:28:17;;;;;;;14.75;7.93;;;7.60;99.90;;;;;;6111364;23;20160;-79
2022/11/06 04:30:53;;;;;;;13.48;8.27;;;7.50;99.90;;;;;;6187565;23;20013;-79
2022/11/06 04:33:29;;;;;;;24.17;9.18;;;7.50;99.90;;;;;;6169979;23;20009;-78
2022/11/06 04:36:15;;;;;;;14.45;8.25;;;7.50;99.90;;;;;;6172257;23;20017;-78
2022/11/06 04:39:07;;;;;;;23.60;8.05;;;7.50;99.90;;;;;;6194725;23;20005;-80
2022/11/06 04:41:36;;;;;;;32.92;8.90;;;7.50;99.90;;;;;;6135238;23;20005;-80
2022/11/06 04:44:18;;;;;;;17.73;8.70;;;7.50;99.90;;;;;;6191133;23;20001;-79
2022/11/06 04:46:54;;;;;;;14.60;8.40;;;7.50;99.90;;;;;;6192089;23;20009;-80
2022/11/06 04:49:21;;;;;;;19.70;9.10;;;7.50;99.90;;;;;;6166926;23;20539;-79
2022/11/06 04:51:48;;;;;;;20.40;8.60;;;7.50;99.90;;;;;;6192522;23;20001;-79
2022/11/06 04:54:14;;;;;;;22.48;9.57;;;7.50;99.90;;;;;;6191772;23;20127;-79
2022/11/06 04:56:40;;;;;;;17.98;8.80;;;7.50;99.90;;;;;;6177244;23;20005;-79
2022/11/06 04:59:11;;;;;;;16.95;9.38;;;7.50;99.90;;;;;;6164453;23;20075;-79
2022/11/06 05:01:36;;;;;;;20.25;8.38;;;7.50;99.90;;;;;;6190662;23;20032;-79
2022/11/06 05:04:02;;;;;;;22.20;10.13;;;7.50;99.90;;;;;;6193936;23;20080;-79
2022/11/06 05:06:28;;;;;;;17.98;9.30;;;7.50;99.90;;;;;;6192046;23;19998;-78
2022/11/06 05:08:54;;;;;;;24.17;9.25;;;7.40;99.90;;;;;;6190315;23;20009;-79
2022/11/06 05:11:20;;;;;;;25.50;9.48;;;7.40;99.90;;;;;;6193714;23;20001;-79
2022/11/06 05:13:46;;;;;;;22.83;9.52;;;7.40;99.90;;;;;;6196214;23;20009;-78
2022/11/06 05:16:11;;;;;;;22.75;9.02;;;7.40;99.90;;;;;;6197774;23;20007;-78
2022/11/06 05:18:37;;;;;;;16.33;8.63;;;7.30;99.90;;;;;;6200072;23;20398;-79
2022/11/06 05:23:47;;;;;;;18.77;9.63;;;7.40;99.90;;;;;;6170105;23;20005;-78
2022/11/06 05:26:13;;;;;;;19.25;9.40;;;7.40;99.90;;;;;;6188204;23;20004;-77
2022/11/06 05:28:39;;;;;;;19.05;9.52;;;7.40;99.90;;;;;;6187028;23;20016;-78
2022/11/06 05:31:05;;;;;;;25.55;9.07;;;7.40;99.90;;;;;;6137056;23;20092;-77
2022/11/06 05:33:32;;;;;;;21.80;9.88;;;7.40;99.90;;;;;;6197418;23;20024;-77
2022/11/06 05:36:04;;;;;;;20.88;10.00;;;7.40;99.90;;;;;;6189360;23;20052;-79
2022/11/06 05:38:30;;;;;;;18.10;10.07;;;7.40;99.90;;;;;;6188798;23;20371;-78
2022/11/06 05:40:56;;;;;;;19.90;9.15;;;7.40;99.90;;;;;;6163901;23;19997;-79
2022/11/06 05:43:22;;;;;;;20.60;8.60;;;7.30;99.90;;;;;;6163361;23;20028;-79
2022/11/06 05:45:48;;;;;;;18.38;9.70;;;7.30;99.90;;;;;;6187775;23;20028;-78
2022/11/06 05:48:14;;;;;;;20.02;8.90;;;7.30;99.90;;;;;;6214742;23;20009;-78
2022/11/06 05:50:39;;;;;;;23.13;10.10;;;7.20;99.90;;;;;;6217739;23;20565;-79
2022/11/06 05:53:14;;;;;;;21.43;9.47;;;7.20;99.90;;;;;;6218090;23;20008;-78
2022/11/06 05:55:40;;;;;;;22.02;9.98;;;7.20;99.90;;;;;;6216678;23;20087;-79
2022/11/06 05:58:05;;;;;;;24.08;10.77;;;7.20;99.90;;;;;;6216799;23;20059;-78
2022/11/06 06:00:31;;;;;;;20.15;10.00;;;7.20;99.90;;;;;;6217658;23;20029;-77
2022/11/06 06:02:57;;;;;;;29.05;10.68;;;7.20;99.90;;;;;;6222041;23;20005;-79
2022/11/06 06:05:22;;;;;;;27.20;10.57;;;7.10;99.90;;;;;;6219699;23;20397;-79
2022/11/06 06:07:48;;;;;;;18.52;10.48;;;7.10;99.90;;;;;;6229319;23;19997;-81
2022/11/06 06:10:14;;;;;;;24.33;10.00;;;7.20;99.90;;;;;;6224442;23;20443;-80
2022/11/06 06:12:40;;;;;;;18.13;9.77;;;7.20;99.90;;;;;;6223812;23;20512;-81
2022/11/06 06:15:06;;;;;;;20.50;10.57;;;7.10;99.90;;;;;;6221930;23;20040;-81
2022/11/06 06:17:32;;;;;;;21.60;10.73;;;7.20;99.90;;;;;;6218482;23;20102;-78
2022/11/06 06:19:58;;;;;;;21.95;9.82;;;7.20;99.90;;;;;;6217903;23;20004;-79
2022/11/06 06:22:23;;;;;;;22.33;10.98;;;7.20;99.90;;;;;;6215474;23;20004;-79
2022/11/06 06:24:51;;;;;;;20.13;9.85;;;7.20;99.90;;;;;;6217130;23;20378;-80
2022/11/06 06:27:16;;;;;;;26.10;10.35;;;7.20;99.90;;;;;;6217613;23;20051;-80
2022/11/06 06:29:42;;;;;;;18.67;9.93;;;7.20;99.90;;;;;;6217311;23;20443;-79
2022/11/06 06:32:08;;;;;;;18.85;9.90;;;7.20;99.90;;;;;;6216200;23;20012;-79
2022/11/06 06:34:34;;;;;;;21.45;10.32;;;7.30;99.90;;;;;;6217385;23;20010;-80
2022/11/06 06:36:59;;;;;;;16.02;9.75;;;7.40;99.90;;;;;;6219314;23;20035;-81
2022/11/06 06:39:25;;;;;;;19.30;10.45;;;7.60;99.90;;;;;;6222440;23;20511;-80
2022/11/06 06:41:51;;;;;;;22.08;10.15;;;7.70;99.90;;;;;;6222876;23;20004;-79
2022/11/06 06:44:17;;;;;;;17.42;9.32;;;7.70;99.90;;;;;;6220016;23;20007;-81
2022/11/06 06:46:42;;;;;;;19.73;9.55;;;7.70;99.90;;;;;;6211242;22;20087;-80
2022/11/06 06:49:08;;;;;;;18.02;9.10;;;7.80;99.90;;;;;;6267818;23;20402;-80
2022/11/06 06:51:34;;;;;;;21.33;9.40;;;7.80;99.90;;;;;;6270397;23;20083;-80
2022/11/06 06:54:00;;;;;;;18.20;8.60;;;7.80;99.90;;;;;;6268944;23;20008;-80
2022/11/06 06:56:25;;;;;;;16.17;8.98;;;7.80;99.90;;;;;;6267664;23;20004;-79
2022/11/06 06:58:54;;;;;;;18.98;8.73;;;7.90;99.90;;;;;;6244681;23;20019;-80
2022/11/06 07:01:21;;;;;;;20.30;8.40;;;8.00;99.90;;;;;;6268764;22;20003;-81
2022/11/06 07:03:47;;;;;;;22.33;7.93;;;8.00;99.90;;;;;;6267719;23;20008;-80
2022/11/06 07:06:13;;;;;;;14.82;8.05;;;8.10;99.90;;;;;;6262100;23;20004;-79
2022/11/06 07:08:39;;;;;;;18.75;8.57;;;8.20;99.90;;;;;;6258243;23;20034;-81
2022/11/06 07:11:07;;;;;;;14.65;7.70;;;8.30;99.90;;;;;;6256612;22;20011;-79
2022/11/06 07:13:34;;;;;;;18.58;7.82;;;8.40;99.90;;;;;;6251505;23;20431;-80
2022/11/06 07:16:06;;;;;;;15.30;8.07;;;8.50;99.90;;;;;;6250272;22;20008;-81
2022/11/06 07:18:33;;;;;;;15.05;8.40;;;8.60;99.90;;;;;;6252205;23;20008;-82
2022/11/06 07:20:58;;;;;;;16.90;9.30;;;8.70;99.90;;;;;;6251802;22;20012;-80
2022/11/06 07:23:24;;;;;;;23.45;11.05;;;8.80;99.90;;;;;;6250381;23;20385;-80
2022/11/06 07:25:53;;;;;;;19.65;10.93;;;8.80;99.90;;;;;;6259088;23;20000;-82
2022/11/06 07:28:20;;;;;;;22.65;11.02;;;8.90;99.90;;;;;;6253364;23;20012;-80
2022/11/06 07:30:45;;;;;;;22.73;10.95;;;8.90;99.90;;;;;;6255435;22;20426;-80
2022/11/06 07:33:11;;;;;;;20.38;11.27;;;9.00;99.90;;;;;;6251933;23;20016;-80
2022/11/06 07:35:37;;;;;;;22.70;11.63;;;9.00;99.90;;;;;;6255395;23;20004;-81
2022/11/06 07:38:05;;;;;;;24.17;12.27;;;9.00;99.90;;;;;;6255079;23;20020;-81
2022/11/06 07:40:33;;;;;;;20.90;11.38;;;9.10;99.90;;;;;;6254651;22;20427;-80
2022/11/06 07:43:06;;;;;;;26.08;11.88;;;9.10;99.90;;;;;;6249944;22;20071;-80
2022/11/06 07:45:33;;;;;;;22.15;12.10;;;9.10;99.90;;;;;;6226988;23;20007;-79
2022/11/06 07:47:59;;;;;;;27.55;11.38;;;9.10;99.90;;;;;;6227226;23;20323;-81
2022/11/06 07:50:26;;;;;;;24.65;12.40;;;9.10;99.90;;;;;;6249321;23;20000;-80
2022/11/06 07:52:52;;;;;;;22.65;12.23;;;9.20;99.90;;;;;;6249463;23;20003;-81
2022/11/06 07:55:18;;;;;;;26.33;12.98;;;9.20;99.90;;;;;;6251289;22;20004;-80
2022/11/06 07:57:43;;;;;;;21.98;12.27;;;9.20;99.90;;;;;;6226748;23;19996;-79
2022/11/06 08:00:10;;;;;;;24.58;13.18;;;9.30;99.90;;;;;;6264466;23;20008;-82
2022/11/06 08:02:39;;;;;;;25.88;14.40;;;9.30;99.90;;;;;;6255378;22;20438;-80
2022/11/06 08:05:05;;;;;;;36.88;16.10;;;9.20;99.90;;;;;;6254616;23;20111;-80
2022/11/06 08:07:31;;;;;;;37.65;16.08;;;9.30;99.90;;;;;;6261907;23;20001;-81
2022/11/06 08:09:57;;;;;;;27.58;15.20;;;9.30;99.90;;;;;;6262883;23;20008;-79
2022/11/06 08:12:22;;;;;;;29.08;16.45;;;9.30;99.90;;;;;;6263142;22;20000;-81
2022/11/06 08:14:48;;;;;;;29.58;16.73;;;9.40;99.90;;;;;;6258106;23;20334;-80
2022/11/06 08:17:14;;;;;;;31.83;17.23;;;9.60;99.90;;;;;;6268513;22;20012;-80
2022/11/06 08:19:40;;;;;;;28.98;16.05;;;9.90;99.90;;;;;;6267468;23;20011;-80
2022/11/06 08:22:06;;;;;;;32.33;17.40;;;10.20;99.90;;;;;;6260592;23;20000;-80
2022/11/06 08:24:31;;;;;;;27.73;15.40;;;10.80;99.90;;;;;;6255394;22;20007;-80
2022/11/06 08:26:58;;;;;;;29.80;17.27;;;11.50;99.90;;;;;;6255904;22;20035;-81
2022/11/06 08:29:24;;;;;;;25.40;15.27;;;11.90;99.90;;;;;;6251994;22;20018;-80
2022/11/06 08:31:49;;;;;;;25.30;14.40;;;12.70;99.90;;;;;;6251464;22;20000;-82
2022/11/06 08:34:15;;;;;;;25.25;14.00;;;13.50;99.90;;;;;;6251347;23;20008;-81
2022/11/06 08:36:51;;;;;;;21.88;13.38;;;14.20;99.90;;;;;;6252416;22;20007;-80
2022/11/06 08:39:16;;;;;;;20.45;12.73;;;15.00;99.90;;;;;;6263481;23;20067;-79
2022/11/06 08:41:43;;;;;;;18.00;11.80;;;15.90;99.90;;;;;;6267783;22;20004;-79
2022/11/06 08:44:09;;;;;;;21.20;12.07;;;16.90;99.90;;;;;;6268517;22;20000;-80
2022/11/06 08:46:35;;;;;;;18.80;11.90;;;18.00;99.90;;;;;;6270376;23;20022;-80
2022/11/06 08:49:01;;;;;;;18.17;11.52;;;18.70;99.90;;;;;;6268897;23;20008;-79
2022/11/06 08:51:27;;;;;;;17.80;11.85;;;19.00;99.60;;;;;;6269333;23;19984;-80
2022/11/06 08:53:52;;;;;;;17.67;11.07;;;19.20;98.10;;;;;;6268627;23;20012;-82
2022/11/06 08:56:18;;;;;;;17.40;11.55;;;19.20;98.20;;;;;;6270859;23;20019;-80
2022/11/06 08:58:44;;;;;;;18.98;10.70;;;20.00;96.80;;;;;;6269274;22;20023;-81
2022/11/06 09:01:10;;;;;;;18.88;11.30;;;20.20;96.00;;;;;;6267080;23;19990;-81
2022/11/06 09:03:35;;;;;;;16.33;10.02;;;20.30;95.20;;;;;;6268008;23;20095;-81
2022/11/06 09:06:04;;;;;;;14.35;9.45;;;20.40;94.70;;;;;;6268672;23;20000;-79
2022/11/06 09:08:30;;;;;;;12.85;8.95;;;20.50;94.10;;;;;;6269531;22;20008;-80
2022/11/06 09:10:56;;;;;;;14.93;8.65;;;21.00;93.60;;;;;;6269727;23;19995;-81
2022/11/06 09:13:21;;;;;;;13.90;8.00;;;21.50;92.50;;;;;;6243570;23;20031;-80
2022/11/06 09:15:47;;;;;;;15.32;8.05;;;22.50;91.30;;;;;;6266953;22;19996;-82
2022/11/06 09:18:13;;;;;;;10.38;7.13;;;22.70;90.30;;;;;;6257700;23;20004;-80
2022/11/06 09:20:39;;;;;;;10.82;7.05;;;22.90;89.60;;;;;;6254541;23;19996;-81
2022/11/06 09:23:07;;;;;;;11.90;6.68;;;23.30;87.00;;;;;;6257779;23;20048;-81
2022/11/06 09:25:33;;;;;;;13.82;6.82;;;24.20;83.70;;;;;;6255900;22;20007;-80
2022/11/06 09:27:59;;;;;;;9.63;5.75;;;24.60;81.40;;;;;;6255866;22;20004;-82
2022/11/06 09:30:27;;;;;;;13.05;5.60;;;24.50;80.20;;;;;;6254398;22;20076;-82
2022/11/06 09:32:56;;;;;;;13.20;6.15;;;24.50;79.10;;;;;;6251402;23;20005;-81
2022/11/06 09:35:23;;;;;;;11.93;6.15;;;24.70;78.00;;;;;;6251392;22;20004;-80
2022/11/06 09:37:49;;;;;;;12.57;6.30;;;24.30;77.60;;;;;;6253582;22;20016;-81
2022/11/06 09:40:29;;;;;;;11.23;5.35;;;24.20;77.60;;;;;;6254710;23;20087;-80
2022/11/06 09:43:27;;;;;;;7.47;4.60;;;24.50;75.90;;;;;;6257326;22;20018;-81
2022/11/06 09:45:54;;;;;;;9.43;5.35;;;24.60;75.40;;;;;;6187864;23;20008;-81
2022/11/06 09:48:27;;;;;;;9.13;5.28;;;25.10;73.90;;;;;;6254114;22;20015;-81
2022/11/06 09:51:00;;;;;;;13.68;5.05;;;25.00;73.50;;;;;;6231552;23;20027;-82
2022/11/06 09:53:38;;;;;;;9.60;5.53;;;24.90;73.30;;;;;;6252751;23;20011;-81
2022/11/06 09:56:05;;;;;;;10.80;5.72;;;24.90;72.90;;;;;;6252911;23;20178;-80
2022/11/06 09:58:41;;;;;;;13.00;5.85;;;24.90;73.30;;;;;;6236299;23;20005;-80
2022/11/06 10:01:20;;;;;;;8.25;5.75;;;25.40;72.70;;;;;;6260977;23;20019;-82
2022/11/06 10:03:55;;;;;;;10.25;5.95;;;25.70;71.60;;;;;;6254249;22;20011;-81
2022/11/06 10:06:22;;;;;;;10.90;6.57;;;25.50;71.00;;;;;;6252529;22;20000;-81
2022/11/06 10:08:51;;;;;;;11.73;6.00;;;25.70;71.10;;;;;;6251930;22;20004;-81
2022/11/06 10:11:17;;;;;;;10.90;6.30;;;26.10;70.40;;;;;;6251068;22;20004;-81
2022/11/06 10:13:54;;;;;;;12.90;7.00;;;25.70;69.70;;;;;;6250962;22;20085;-82
2022/11/06 10:16:38;;;;;;;11.73;6.43;;;25.60;70.30;;;;;;6250443;23;20062;-81
2022/11/06 10:19:10;;;;;;;13.93;6.40;;;25.60;69.60;;;;;;6247712;23;20039;-81
2022/11/06 10:22:06;;;;;;;10.98;6.32;;;25.50;69.80;;;;;;6250613;22;20098;-80
2022/11/06 10:24:49;;;;;;;10.20;5.72;;;25.80;70.00;;;;;;6230033;23;20008;-80
2022/11/06 10:27:18;;;;;;;10.25;5.05;;;25.60;68.50;;;;;;6250659;22;20004;-81
2022/11/06 10:29:49;;;;;;;13.10;5.57;;;24.90;68.00;;;;;;6251774;22;20000;-80
2022/11/06 10:32:36;;;;;;;11.00;4.95;;;24.90;68.80;;;;;;6250933;22;20012;-80
2022/11/06 10:35:16;;;;;;;12.45;5.43;;;25.10;68.60;;;;;;6251124;23;20036;-80
2022/11/06 10:38:04;;;;;;;12.32;5.35;;;25.30;68.00;;;;;;6254348;23;20004;-82
2022/11/06 10:40:31;;;;;;;12.45;5.20;;;25.10;68.20;;;;;;6252032;23;20008;-82
2022/11/06 10:43:15;;;;;;;11.30;4.65;;;25.50;67.80;;;;;;6251373;22;20011;-81
2022/11/06 10:45:46;;;;;;;10.02;4.82;;;25.80;67.10;;;;;;6254594;22;20004;-81
2022/11/06 10:48:30;;;;;;;14.75;5.13;;;26.30;66.40;;;;;;6254427;23;20202;-81
2022/11/06 10:51:24;;;;;;;9.98;4.57;;;26.50;65.60;;;;;;6259232;23;20004;-80
2022/11/06 10:54:14;;;;;;;10.82;4.70;;;27.00;64.90;;;;;;6256502;22;20008;-81
2022/11/06 10:57:01;;;;;;;11.93;4.50;;;26.80;64.60;;;;;;6252653;22;20004;-81
2022/11/06 10:59:27;;;;;;;10.10;4.35;;;26.90;64.30;;;;;;6251445;22;20058;-81
2022/11/06 11:01:53;;;;;;;10.57;4.10;;;27.20;64.00;;;;;;6251017;22;20024;-81
2022/11/06 11:04:19;;;;;;;9.07;4.25;;;27.30;63.60;;;;;;6255069;22;20000;-82
2022/11/06 11:06:45;;;;;;;8.27;4.20;;;27.70;63.20;;;;;;6259141;22;20044;-82
2022/11/06 11:09:34;;;;;;;10.90;4.43;;;28.10;62.10;;;;;;6259464;23;20004;-81
2022/11/06 11:12:00;;;;;;;7.50;3.53;;;28.60;61.10;;;;;;6251249;22;20004;-81
2022/11/06 11:14:31;;;;;;;6.53;3.95;;;28.80;60.40;;;;;;6248495;23;20080;-83
2022/11/06 11:17:01;;;;;;;8.27;3.85;;;28.80;60.00;;;;;;6249333;23;20362;-82
2022/11/06 11:19:43;;;;;;;7.03;3.53;;;28.80;59.40;;;;;;6252368;23;20071;-81
2022/11/06 11:22:15;;;;;;;11.80;3.63;;;28.80;58.60;;;;;;6255800;22;20010;-81
2022/11/06 11:25:07;;;;;;;8.40;3.58;;;28.60;58.70;;;;;;6262533;23;20004;-81
2022/11/06 11:27:42;;;;;;;10.20;3.88;;;28.80;58.50;;;;;;6265219;23;20054;-81
2022/11/06 11:30:25;;;;;;;7.63;2.92;;;28.90;58.30;;;;;;6266625;23;20087;-81
2022/11/06 11:32:52;;;;;;;13.55;3.60;;;28.90;58.00;;;;;;6256857;22;20014;-82
2022/11/06 11:35:22;;;;;;;8.80;3.38;;;28.80;57.70;;;;;;6250681;23;20035;-82
2022/11/06 11:37:48;;;;;;;8.80;3.35;;;28.60;57.30;;;;;;6250905;23;20036;-82
2022/11/06 11:40:35;;;;;;;7.95;3.65;;;28.80;57.30;;;;;;6251349;23;20077;-83
2022/11/06 11:43:23;;;;;;;7.20;3.13;;;28.80;56.50;;;;;;6262672;22;20000;-82
2022/11/06 11:46:07;;;;;;;7.90;2.97;;;28.40;56.80;;;;;;6258192;23;20044;-81
2022/11/06 11:48:48;;;;;;;6.72;3.63;;;27.60;57.60;;;;;;6259686;23;20016;-82
2022/11/06 11:51:34;;;;;;;11.30;3.38;;;27.00;58.30;;;;;;6261079;23;20004;-82
2022/11/06 11:54:18;;;;;;;9.07;3.20;;;26.50;58.00;;;;;;6269112;23;20008;-83
2022/11/06 11:57:03;;;;;;;9.48;4.13;;;25.70;58.50;;;;;;6264309;23;20070;-81
2022/11/06 11:59:48;;;;;;;7.13;3.97;;;23.90;61.30;;;;;;6262550;22;20015;-83
2022/11/06 12:02:19;;;;;;;7.22;2.95;;;21.90;64.80;;;;;;6256071;23;20011;-82
2022/11/06 12:04:51;;;;;;;7.80;3.28;;;20.60;67.00;;;;;;6258640;23;20075;-83
2022/11/06 12:07:27;;;;;;;6.95;2.63;;;19.80;67.90;;;;;;6253421;23;20000;-83
2022/11/06 12:09:53;;;;;;;6.78;2.72;;;19.10;68.70;;;;;;6254345;22;20048;-82
2022/11/06 12:12:30;;;;;;;9.57;3.15;;;18.30;70.40;;;;;;6252544;23;20000;-81
2022/11/06 12:15:20;;;;;;;7.72;2.17;;;17.50;72.30;;;;;;6261835;22;19989;-81
2022/11/06 12:17:58;;;;;;;9.10;2.70;;;16.80;73.60;;;;;;6273418;22;20004;-81
2022/11/06 12:20:33;;;;;;;8.90;2.47;;;16.30;74.70;;;;;;6267984;22;20016;-82
2022/11/06 12:23:00;;;;;;;6.95;2.53;;;15.90;75.20;;;;;;6254271;23;20004;-82
2022/11/06 12:25:39;;;;;;;10.02;2.10;;;15.60;75.10;;;;;;6256610;22;20000;-82
2022/11/06 12:28:12;;;;;;;6.68;2.00;;;15.20;76.90;;;;;;6252705;22;20398;-82
2022/11/06 12:30:41;;;;;;;4.70;2.03;;;15.00;77.80;;;;;;6228938;23;20064;-81
2022/11/06 12:33:19;;;;;;;5.95;2.20;;;14.80;78.40;;;;;;6256423;22;20004;-82
2022/11/06 12:36:05;;;;;;;4.05;2.35;;;14.60;80.00;;;;;;6257508;23;20061;-82
2022/11/06 12:38:47;;;;;;;5.25;2.67;;;14.40;80.40;;;;;;6253339;23;20008;-83
2022/11/06 12:41:33;;;;;;;10.98;3.38;;;14.20;82.60;;;;;;6262214;22;20008;-82
2022/11/06 12:43:59;;;;;;;6.88;2.80;;;14.10;84.60;;;;;;6267639;23;19996;-81
2022/11/06 12:49:38;;;;;;;8.70;2.85;;;13.80;85.40;;;;;;6271994;22;20026;-88
2022/11/06 12:52:41;;;;;;;5.10;2.47;;;13.70;87.30;;;;;;6247203;22;19996;-87
2022/11/06 12:55:28;;;;;;;8.77;3.13;;;13.60;89.10;;;;;;6247875;22;20012;-88
2022/11/06 12:58:22;;;;;;;10.05;3.67;;;13.50;90.20;;;;;;6292925;22;20043;-87
2022/11/06 13:01:25;;;;;;;7.18;2.50;;;13.40;91.00;;;;;;6304658;22;20063;-88
2022/11/06 13:04:13;;;;;;;9.65;3.03;;;13.40;90.70;;;;;;6304351;22;19992;-88
2022/11/06 13:07:22;;;;;;;11.90;3.55;;;13.40;90.90;;;;;;6278019;22;20004;-87
2022/11/06 13:09:51;;;;;;;6.18;3.35;;;13.30;91.50;;;;;;6304234;22;20047;-87
2022/11/06 13:12:28;;;;;;;15.00;3.50;;;13.20;92.20;;;;;;6304790;22;20056;-87
2022/11/06 13:15:29;;;;;;;10.88;3.78;;;13.10;92.70;;;;;;6277294;22;19991;-88
2022/11/06 13:18:03;;;;;;;9.93;3.25;;;13.00;93.50;;;;;;6304529;22;20006;-88
2022/11/06 13:20:35;;;;;;;9.98;3.45;;;12.90;94.40;;;;;;6304060;22;20023;-89
2022/11/06 13:23:08;;;;;;;9.48;3.47;;;12.90;94.60;;;;;;6274709;22;20007;-88
2022/11/06 13:25:46;;;;;;;6.82;3.67;;;12.90;94.90;;;;;;6249979;22;20016;-87